This is the latest recevied weather packets stored in our database for station/object KB3GVC-13. If no packets are shown the sender has not sent any weather packets the latest 1 day(s).
| Time | Temp. | Humidity | Pressure | Rain* | Wind** | Luminosity | Snow |
|---|---|---|---|---|---|---|---|
| 1778009115 | 28.89° C | 32% | 1010.4 hPa | 0 mm | 2.68 m/s, 160° | - | - |
| 1778008812 | 28.33° C | 33% | 1010.6 hPa | 0 mm | 2.24 m/s, 185° | - | - |
| 1778008510 | 28.33° C | 33% | 1010.8 hPa | 0 mm | 1.79 m/s, 221° | - | - |
| 1778008208 | 27.78° C | 32% | 1010.8 hPa | 0 mm | 2.68 m/s, 281° | - | - |
| 1778007902 | 28.33° C | 32% | 1010.6 hPa | 0 mm | 4.02 m/s, 136° | - | - |
| 1778007598 | 28.33° C | 33% | 1010.9 hPa | 0 mm | 1.79 m/s, 190° | - | - |
| 1778007296 | 28.89° C | 32% | 1010.9 hPa | 0 mm | 1.79 m/s, 145° | - | - |
| 1778006991 | 28.89° C | 32% | 1011 hPa | 0 mm | 2.24 m/s, 106° | - | - |
| 1778006688 | 28.33° C | 35% | 1011.1 hPa | 0 mm | 0.89 m/s, 203° | - | - |
| 1778006385 | 28.33° C | 35% | 1011.2 hPa | 0 mm | 0.89 m/s, 235° | - | - |
| 1778006082 | 28.33° C | 38% | 1011.2 hPa | 0 mm | 1.34 m/s, 294° | - | - |
| 1778005779 | 27.78° C | 37% | 1011.4 hPa | 0 mm | 1.79 m/s, 167° | - | - |
| 1778005476 | 27.78° C | 37% | 1011.3 hPa | 0 mm | 0.89 m/s, 206° | - | - |
| 1778005172 | 28.33° C | 37% | 1011.2 hPa | 0 mm | 2.24 m/s, 220° | - | - |
| 1778004870 | 27.78° C | 40% | 1011.3 hPa | 0 mm | 0.89 m/s, 189° | - | - |
| 1778004566 | 27.78° C | 39% | 1011.7 hPa | 0 mm | 2.24 m/s, 129° | - | - |
| 1778004262 | 27.78° C | 41% | 1011.7 hPa | 0 mm | 0.45 m/s, 226° | - | - |
| 1778003959 | 27.78° C | 39% | 1011.6 hPa | 0 mm | 2.68 m/s, 212° | - | - |
| 1778003655 | 27.78° C | 39% | 1011.6 hPa | 0 mm | 0.89 m/s, 224° | - | - |
| 1778003352 | 27.78° C | 40% | 1011.6 hPa | 0 mm | 1.79 m/s, 198° | - | - |
| 1778003050 | 27.78° C | 40% | 1011.7 hPa | 0 mm | 1.79 m/s, 201° | - | - |
| 1778002746 | 27.22° C | 42% | 1011.9 hPa | 0 mm | 0.89 m/s, 294° | - | - |
| 1778002442 | 27.22° C | 42% | 1011.8 hPa | 0 mm | 2.24 m/s, 243° | - | - |
| 1778002139 | 26.67° C | 44% | 1012 hPa | 0 mm | 0.89 m/s, 281° | - | - |
| 1778001837 | 26.67° C | 43% | 1011.9 hPa | 0 mm | 1.79 m/s, 203° | - | - |
* Rain latest hour (hover to see other rain measurements)
** Current wind speed in m/s (hover to see current wind gust speed)